Terminal Aerodrome Forecast
Issued by NWS

Home | Current Version | Previous Version | Text Only | Print | Product List | Glossary On
Versions: 1 2 3 4 5 6 7 8 9 10 11 12 13 14 15 16 17 18 19 20 21 22 23 24 25 26 27 28 29 30 31 32 33 34
515
FTUS45 KGJT 240100 AAA
TAFCNY
TAF AMD
KCNY 240100Z 2401/2424 30020G29KT P6SM VCSH FEW020
     FM240200 30010G19KT P6SM VCSH BKN090
     FM240400 28008KT P6SM BKN090
     FM241100 30005KT P6SM SCT200
     FM241800 08007KT P6SM FEW200=

USA.gov is the U.S. government's official web portal to all federal, state and local government web resources and services.